createdAt,value
2022-12-28T00:01:28.416Z,5.78
2022-12-28T00:03:56.237Z,5.88
2022-12-28T00:06:24.387Z,6.47
2022-12-28T00:08:56.105Z,5.40
2022-12-28T00:11:28.130Z,6.30
2022-12-28T00:13:59.681Z,7.22
2022-12-28T00:16:30.844Z,6.60
2022-12-28T00:19:00.049Z,6.78
2022-12-28T00:21:27.343Z,6.65
2022-12-28T00:23:58.513Z,7.68
2022-12-28T00:26:27.136Z,7.68
2022-12-28T00:28:59.767Z,7.40
2022-12-28T00:31:30.743Z,8.40
2022-12-28T00:33:57.926Z,8.02
2022-12-28T00:36:25.070Z,8.30
2022-12-28T00:39:12.202Z,8.50
2022-12-28T00:41:39.116Z,8.20
2022-12-28T00:44:08.887Z,7.57
2022-12-28T00:46:36.296Z,7.55
2022-12-28T00:49:03.267Z,7.57
2022-12-28T00:51:30.174Z,6.97
2022-12-28T00:53:58.056Z,7.68
2022-12-28T00:56:24.976Z,7.43
2022-12-28T00:58:58.251Z,7.55
2022-12-28T01:01:26.946Z,7.82
2022-12-28T01:03:57.030Z,7.43
2022-12-28T01:06:27.824Z,7.65
2022-12-28T01:08:54.973Z,7.57
2022-12-28T01:11:27.485Z,7.47
2022-12-28T01:13:57.004Z,7.50
2022-12-28T01:16:30.465Z,7.60
2022-12-28T01:18:59.755Z,7.68
2022-12-28T01:21:29.631Z,7.45
2022-12-28T01:24:01.831Z,7.05
2022-12-28T01:26:29.712Z,7.13
2022-12-28T01:28:58.545Z,6.78
2022-12-28T01:31:26.057Z,6.80
2022-12-28T01:33:53.022Z,7.20
2022-12-28T01:36:31.979Z,7.32
2022-12-28T01:39:01.040Z,6.38
2022-12-28T01:41:30.027Z,6.90
2022-12-28T01:43:56.876Z,6.30
2022-12-28T01:46:40.197Z,5.78
2022-12-28T01:49:16.036Z,5.45
2022-12-28T01:51:47.531Z,5.85
2022-12-28T01:54:15.275Z,5.35
2022-12-28T01:56:44.343Z,5.53
2022-12-28T01:59:12.372Z,4.82
2022-12-28T02:01:39.775Z,4.80
2022-12-28T02:04:06.765Z,4.97
2022-12-28T02:06:33.820Z,5.15
2022-12-28T02:09:07.286Z,4.80
2022-12-28T02:11:35.387Z,4.72
2022-12-28T02:14:04.816Z,5.20
2022-12-28T02:16:31.923Z,4.63
2022-12-28T02:18:58.889Z,4.40
2022-12-28T02:21:43.712Z,4.78
2022-12-28T02:24:28.889Z,4.50
2022-12-28T02:27:19.645Z,3.70
2022-12-28T02:29:49.133Z,4.15
2022-12-28T02:32:21.747Z,4.22
2022-12-28T02:34:55.018Z,4.22
2022-12-28T02:37:30.737Z,3.92
2022-12-28T02:40:06.307Z,4.28
2022-12-28T02:42:36.526Z,3.97
2022-12-28T02:45:23.265Z,3.75
2022-12-28T02:48:10.304Z,3.58
2022-12-28T02:51:07.606Z,3.65
2022-12-28T02:53:49.808Z,4.05
2022-12-28T02:56:38.533Z,3.72
2022-12-28T02:59:08.504Z,3.53
2022-12-28T03:01:47.501Z,3.45
2022-12-28T03:04:52.159Z,3.33
2022-12-28T03:07:46.919Z,3.60
2022-12-28T03:10:27.162Z,3.25
2022-12-28T03:13:44.402Z,3.20
2022-12-28T03:16:57.956Z,2.92
2022-12-28T03:19:50.934Z,3.25
2022-12-28T03:22:38.428Z,3.03
2022-12-28T03:25:31.972Z,2.72
2022-12-28T03:28:20.920Z,2.92
2022-12-28T03:31:07.704Z,4.10
2022-12-28T03:33:53.859Z,2.72
2022-12-28T03:36:32.706Z,2.92
2022-12-28T03:39:20.509Z,2.80
2022-12-28T03:42:13.734Z,3.13
2022-12-28T03:44:47.687Z,3.05
2022-12-28T03:47:17.285Z,3.20
2022-12-28T03:49:44.559Z,3.03
2022-12-28T03:52:12.987Z,3.03
2022-12-28T03:54:41.256Z,2.83
2022-12-28T03:57:11.559Z,3.22
2022-12-28T03:59:42.110Z,3.15
2022-12-28T04:02:09.256Z,2.70
2022-12-28T04:04:36.536Z,3.00
2022-12-28T04:07:03.461Z,2.63
2022-12-28T04:09:32.643Z,2.97
2022-12-28T04:12:00.176Z,2.95
2022-12-28T04:14:47.099Z,2.78
2022-12-28T04:17:15.781Z,2.70
2022-12-28T04:19:42.898Z,3.03
2022-12-28T04:22:09.865Z,2.70
2022-12-28T04:24:37.014Z,2.10
2022-12-28T04:27:04.481Z,2.47
2022-12-28T04:29:31.561Z,2.00
2022-12-28T04:32:02.707Z,2.75
2022-12-28T04:34:29.697Z,2.38
2022-12-28T04:37:03.670Z,2.65
2022-12-28T04:39:55.298Z,2.70
2022-12-28T04:42:17.771Z,2.20
2022-12-28T04:44:44.643Z,2.15
2022-12-28T04:47:11.562Z,2.20
2022-12-28T04:49:38.468Z,2.55
2022-12-28T04:52:05.630Z,2.30
2022-12-28T04:54:32.615Z,2.28
2022-12-28T04:56:59.505Z,3.58
2022-12-28T04:59:26.391Z,2.42
2022-12-28T05:01:53.387Z,2.25
2022-12-28T05:04:20.430Z,2.33
2022-12-28T05:06:47.324Z,2.10
2022-12-28T05:09:14.486Z,2.53
2022-12-28T05:11:41.336Z,2.97
2022-12-28T05:14:08.266Z,2.65
2022-12-28T05:16:35.187Z,2.63
2022-12-28T05:19:02.157Z,2.20
2022-12-28T05:21:29.327Z,1.98
2022-12-28T05:23:57.489Z,2.35
2022-12-28T05:26:27.369Z,2.13
2022-12-28T05:28:55.780Z,1.98
2022-12-28T05:31:23.486Z,2.63
2022-12-28T05:33:50.528Z,2.13
2022-12-28T05:36:23.183Z,2.47
2022-12-28T05:38:50.920Z,2.33
2022-12-28T05:41:23.732Z,2.67
2022-12-28T05:43:50.958Z,2.53
2022-12-28T05:46:21.305Z,2.97
2022-12-28T05:48:48.500Z,1.55
2022-12-28T05:51:19.947Z,3.05
2022-12-28T05:53:47.307Z,2.17
2022-12-28T05:56:16.949Z,2.20
2022-12-28T05:58:45.319Z,1.90
2022-12-28T06:01:17.928Z,2.00
2022-12-28T06:03:46.837Z,2.45
2022-12-28T06:06:16.654Z,2.00
2022-12-28T06:08:45.351Z,2.00
2022-12-28T06:11:14.660Z,2.53
2022-12-28T06:13:41.706Z,2.22
2022-12-28T06:16:12.857Z,3.03
2022-12-28T06:18:39.956Z,2.55
2022-12-28T06:21:26.402Z,2.40
2022-12-28T06:23:55.252Z,2.60
2022-12-28T06:26:22.421Z,2.80
2022-12-28T06:28:50.435Z,2.17
2022-12-28T06:31:25.643Z,2.40
2022-12-28T06:33:57.254Z,2.38
2022-12-28T06:36:31.208Z,2.03
2022-12-28T06:39:00.433Z,2.38
2022-12-28T06:41:28.483Z,1.90
2022-12-28T06:43:55.885Z,2.25
2022-12-28T06:46:25.466Z,2.30
2022-12-28T06:48:52.575Z,2.35
2022-12-28T06:51:22.183Z,2.10
2022-12-28T06:53:51.007Z,2.22
2022-12-28T06:56:23.945Z,2.72
2022-12-28T06:58:54.468Z,2.20
2022-12-28T07:01:31.108Z,2.33
2022-12-28T07:03:59.170Z,2.28
2022-12-28T07:06:28.755Z,2.45
2022-12-28T07:09:00.538Z,2.65
2022-12-28T07:11:29.164Z,2.60
2022-12-28T07:13:56.783Z,2.72
2022-12-28T07:16:25.903Z,2.20
2022-12-28T07:18:52.842Z,1.88
2022-12-28T07:21:23.420Z,1.80
2022-12-28T07:23:51.745Z,2.15
2022-12-28T07:26:21.226Z,2.15
2022-12-28T07:28:49.985Z,1.90
2022-12-28T07:31:20.508Z,2.30
2022-12-28T07:33:47.793Z,2.83
2022-12-28T07:36:17.889Z,1.90
2022-12-28T07:38:45.396Z,2.13
2022-12-28T07:41:17.512Z,2.00
2022-12-28T07:43:44.656Z,3.10
2022-12-28T07:46:13.512Z,2.30
2022-12-28T07:48:41.479Z,2.10
2022-12-28T07:51:10.698Z,2.15
2022-12-28T07:53:39.229Z,2.28
2022-12-28T07:56:07.117Z,2.10
2022-12-28T07:58:34.716Z,1.58
2022-12-28T08:01:05.815Z,2.45
2022-12-28T08:03:33.932Z,2.20
2022-12-28T08:06:10.840Z,1.65
2022-12-28T08:08:45.556Z,1.70
2022-12-28T08:11:16.019Z,2.90
2022-12-28T08:13:45.197Z,1.77
2022-12-28T08:16:13.849Z,1.77
2022-12-28T08:18:41.788Z,2.15
2022-12-28T08:21:12.661Z,2.40
2022-12-28T08:23:40.146Z,1.90
2022-12-28T08:26:10.392Z,1.98
2022-12-28T08:28:38.679Z,2.78
2022-12-28T08:31:17.662Z,1.95
2022-12-28T08:33:45.341Z,2.78
2022-12-28T08:36:12.468Z,2.55
2022-12-28T08:38:40.815Z,2.40
2022-12-28T08:41:10.985Z,2.55
2022-12-28T08:43:37.862Z,2.83
2022-12-28T08:46:08.051Z,2.70
2022-12-28T08:48:35.734Z,2.83
2022-12-28T08:51:04.997Z,3.20
2022-12-28T08:53:32.601Z,3.03
2022-12-28T08:56:11.027Z,2.50
2022-12-28T08:58:42.362Z,2.58
2022-12-28T09:01:15.046Z,2.63
2022-12-28T09:03:44.886Z,2.83
2022-12-28T09:06:14.743Z,3.30
2022-12-28T09:08:42.573Z,2.67
2022-12-28T09:11:13.195Z,3.05
2022-12-28T09:13:41.214Z,2.78
2022-12-28T09:16:14.057Z,2.83
2022-12-28T09:18:43.565Z,3.03
2022-12-28T09:21:12.098Z,2.78
2022-12-28T09:23:39.266Z,2.75
2022-12-28T09:26:12.232Z,2.53
2022-12-28T09:28:44.459Z,2.67
2022-12-28T09:31:11.431Z,2.85
2022-12-28T09:34:34.481Z,3.40
2022-12-28T09:36:44.746Z,1.50
2022-12-28T09:39:19.620Z,2.25
2022-12-28T09:42:03.649Z,2.20
2022-12-28T09:44:45.046Z,2.67
2022-12-28T09:47:22.140Z,2.10
2022-12-28T09:49:49.045Z,1.73
2022-12-28T09:52:25.674Z,2.50
2022-12-28T09:54:53.515Z,1.80
2022-12-28T09:57:21.577Z,2.38
2022-12-28T09:59:52.432Z,2.22
2022-12-28T10:02:32.759Z,1.35
2022-12-28T10:04:59.710Z,2.47
2022-12-28T10:07:26.841Z,1.80
2022-12-28T10:09:53.873Z,2.03
2022-12-28T10:12:24.511Z,2.05
2022-12-28T10:14:53.676Z,1.40
2022-12-28T10:17:27.143Z,1.70
2022-12-28T10:19:58.315Z,1.55
2022-12-28T10:22:32.487Z,1.25
2022-12-28T10:24:59.529Z,0.90
2022-12-28T10:27:31.295Z,1.10
2022-12-28T10:30:01.841Z,1.02
2022-12-28T10:32:48.676Z,1.10
2022-12-28T10:35:40.884Z,0.98
2022-12-28T10:38:22.002Z,0.90
2022-12-28T10:41:01.859Z,1.02
2022-12-28T10:43:32.527Z,1.10
2022-12-28T10:46:00.661Z,1.13
2022-12-28T10:48:50.557Z,1.13
2022-12-28T10:51:26.081Z,0.90
2022-12-28T10:53:57.495Z,1.55
2022-12-28T10:56:30.053Z,1.13
2022-12-28T10:59:12.730Z,1.30
2022-12-28T11:01:42.710Z,2.17
2022-12-28T11:04:24.320Z,1.17
2022-12-28T11:06:52.673Z,1.10
2022-12-28T11:09:24.272Z,0.90
2022-12-28T11:12:15.107Z,1.13
2022-12-28T11:14:42.111Z,1.60
2022-12-28T11:17:24.007Z,0.77
2022-12-28T11:19:55.119Z,1.10
2022-12-28T11:22:28.709Z,1.45
2022-12-28T11:24:58.947Z,1.30
2022-12-28T11:27:26.049Z,0.98
2022-12-28T11:29:55.143Z,1.10
2022-12-28T11:32:27.270Z,1.20
2022-12-28T11:34:56.579Z,1.17
2022-12-28T11:37:25.720Z,0.63
2022-12-28T11:39:53.422Z,0.88
2022-12-28T11:42:40.730Z,1.13
2022-12-28T11:45:15.366Z,1.15
2022-12-28T11:47:42.810Z,1.50
2022-12-28T11:50:34.594Z,1.50
2022-12-28T11:53:03.410Z,2.75
2022-12-28T11:55:49.739Z,0.50
2022-12-28T11:58:28.871Z,1.20
2022-12-28T12:00:57.214Z,1.10
2022-12-28T12:03:58.117Z,1.70
2022-12-28T12:06:48.804Z,0.80
2022-12-28T12:09:21.857Z,1.30
2022-12-28T12:11:49.555Z,1.50
2022-12-28T12:14:31.452Z,0.90
2022-12-28T12:17:05.063Z,1.42
2022-12-28T12:19:37.153Z,1.48
2022-12-28T12:22:12.556Z,0.80
2022-12-28T12:24:58.956Z,1.10
2022-12-28T12:27:36.770Z,0.65
2022-12-28T12:30:08.185Z,0.90
2022-12-28T12:32:49.817Z,1.02
2022-12-28T12:35:20.595Z,1.63
2022-12-28T12:37:59.845Z,1.15
2022-12-28T12:40:35.727Z,1.38
2022-12-28T12:43:22.936Z,1.50
2022-12-28T12:46:22.155Z,1.00
2022-12-28T12:48:51.776Z,1.30
2022-12-28T12:51:40.209Z,1.63
2022-12-28T12:54:13.192Z,1.20
2022-12-28T12:57:18.257Z,0.90
2022-12-28T13:00:17.735Z,1.38
2022-12-28T13:03:15.808Z,1.00
2022-12-28T13:05:49.725Z,1.52
2022-12-28T13:08:23.931Z,1.05
2022-12-28T13:10:52.229Z,1.02
2022-12-28T13:13:27.747Z,1.92
2022-12-28T13:16:01.087Z,1.35
2022-12-28T13:18:45.224Z,1.20
2022-12-28T13:21:18.666Z,1.50
2022-12-28T13:23:45.682Z,1.48
2022-12-28T13:26:15.355Z,1.23
2022-12-28T13:29:02.846Z,1.05
2022-12-28T13:31:35.513Z,1.83
2022-12-28T13:34:24.275Z,1.95
2022-12-28T13:36:58.318Z,1.33
2022-12-28T13:39:26.829Z,2.05
2022-12-28T13:42:05.935Z,1.42
2022-12-28T13:44:39.589Z,1.80
2022-12-28T13:47:38.729Z,1.55
2022-12-28T13:50:12.603Z,2.15
2022-12-28T13:52:59.259Z,1.70
2022-12-28T13:55:31.409Z,2.30
2022-12-28T13:58:03.888Z,2.10
2022-12-28T14:00:33.945Z,1.58
2022-12-28T14:03:00.947Z,1.60
2022-12-28T14:05:30.919Z,1.40
2022-12-28T14:07:59.392Z,1.98
2022-12-28T14:10:27.850Z,1.73
2022-12-28T14:12:56.457Z,1.92
2022-12-28T14:15:24.010Z,2.28
2022-12-28T14:17:52.630Z,2.20
2022-12-28T14:20:19.840Z,2.10
2022-12-28T14:22:46.873Z,2.20
2022-12-28T14:25:16.887Z,2.25
2022-12-28T14:27:57.014Z,2.78
2022-12-28T14:30:36.880Z,3.90
2022-12-28T14:33:22.379Z,3.22
2022-12-28T14:35:54.256Z,2.55
2022-12-28T14:38:29.213Z,3.20
2022-12-28T14:40:58.860Z,3.08
2022-12-28T14:43:31.174Z,3.03
2022-12-28T14:46:07.351Z,3.85
2022-12-28T14:48:40.794Z,3.55
2022-12-28T14:51:17.282Z,3.70
2022-12-28T14:53:45.324Z,4.90
2022-12-28T14:56:19.769Z,4.68
2022-12-28T14:58:54.582Z,4.18
2022-12-28T15:01:22.564Z,3.88
2022-12-28T15:03:53.850Z,4.13
2022-12-28T15:06:22.578Z,4.10
2022-12-28T15:08:53.977Z,3.65
2022-12-28T15:11:22.926Z,3.90
2022-12-28T15:13:50.344Z,5.22
2022-12-28T15:16:19.311Z,3.83
2022-12-28T15:18:46.467Z,4.68
2022-12-28T15:21:17.418Z,5.28
2022-12-28T15:23:48.155Z,5.35
2022-12-28T15:26:15.191Z,5.38
2022-12-28T15:28:42.583Z,5.55
2022-12-28T15:31:13.023Z,3.90
2022-12-28T15:33:40.339Z,4.78
2022-12-28T15:36:16.733Z,14.85
2022-12-28T15:38:44.404Z,8.10
2022-12-28T15:41:29.974Z,8.45
2022-12-28T15:43:57.025Z,7.50
2022-12-28T15:46:24.090Z,7.65
2022-12-28T15:48:51.074Z,8.57
2022-12-28T15:51:17.964Z,9.30
2022-12-28T15:53:44.862Z,9.55
2022-12-28T15:56:21.835Z,8.82
2022-12-28T15:58:49.069Z,9.20
2022-12-28T16:01:16.052Z,10.02
2022-12-28T16:03:42.984Z,9.43
2022-12-28T16:06:10.140Z,9.75
2022-12-28T16:08:37.111Z,9.85
2022-12-28T16:11:15.506Z,10.95
2022-12-28T16:13:42.881Z,10.00
2022-12-28T16:16:12.741Z,9.02
2022-12-28T16:18:40.143Z,8.90
2022-12-28T16:21:08.976Z,8.75
2022-12-28T16:23:38.528Z,8.80
2022-12-28T16:26:07.562Z,9.05
2022-12-28T16:28:35.278Z,10.00
2022-12-28T16:31:02.466Z,8.60
2022-12-28T16:33:29.719Z,13.68
2022-12-28T16:35:59.734Z,9.23
2022-12-28T16:38:28.655Z,8.05
2022-12-28T16:40:57.106Z,8.48
2022-12-28T16:43:24.471Z,8.05
2022-12-28T16:45:51.552Z,8.20
2022-12-28T16:48:18.640Z,8.45
2022-12-28T16:50:45.564Z,8.10
2022-12-28T16:53:12.500Z,8.02
2022-12-28T16:55:41.822Z,9.02
2022-12-28T16:58:10.105Z,10.90
2022-12-28T17:00:37.119Z,8.50
2022-12-28T17:03:04.148Z,8.82
2022-12-28T17:05:35.556Z,9.32
2022-12-28T17:08:03.967Z,8.40
2022-12-28T17:10:31.647Z,8.05
2022-12-28T17:12:58.632Z,9.18
2022-12-28T17:15:26.263Z,8.18
2022-12-28T17:17:53.138Z,9.68
2022-12-28T17:20:20.013Z,9.30
2022-12-28T17:22:47.040Z,9.35
2022-12-28T17:25:14.830Z,9.85
2022-12-28T17:27:41.761Z,8.55
2022-12-28T17:30:09.146Z,8.43
2022-12-28T17:32:36.218Z,9.23
2022-12-28T17:35:03.193Z,10.27
2022-12-28T17:37:30.411Z,10.82
2022-12-28T17:39:58.139Z,9.82
2022-12-28T17:42:25.122Z,11.07
2022-12-28T17:44:51.988Z,12.13
2022-12-28T17:47:18.863Z,12.52
2022-12-28T17:49:45.757Z,12.23
2022-12-28T17:52:17.602Z,14.20
2022-12-28T17:54:44.589Z,13.77
2022-12-28T17:57:11.506Z,14.57
2022-12-28T17:59:38.391Z,14.68
2022-12-28T18:02:09.248Z,14.40
2022-12-28T18:04:36.894Z,15.27
2022-12-28T18:07:04.437Z,14.02
2022-12-28T18:09:31.592Z,13.10
2022-12-28T18:11:58.708Z,15.25
2022-12-28T18:14:26.725Z,13.95
2022-12-28T18:16:55.123Z,13.25
2022-12-28T18:19:22.234Z,14.05
2022-12-28T18:21:49.135Z,14.57
2022-12-28T18:24:18.279Z,14.43
2022-12-28T18:26:45.253Z,13.65
2022-12-28T18:29:12.295Z,11.70
2022-12-28T18:31:39.321Z,13.52
2022-12-28T18:34:07.504Z,12.85
2022-12-28T18:36:34.499Z,13.25
2022-12-28T18:39:02.783Z,13.15
2022-12-28T18:41:33.925Z,13.55
2022-12-28T18:44:03.007Z,14.20
2022-12-28T18:46:30.394Z,13.70
2022-12-28T18:48:57.679Z,13.15
2022-12-28T18:51:24.644Z,14.13
2022-12-28T18:53:51.617Z,14.05
2022-12-28T18:56:20.851Z,14.63
2022-12-28T18:58:56.262Z,12.63
2022-12-28T19:04:12.073Z,13.60
2022-12-28T19:06:39.616Z,12.57
2022-12-28T19:09:08.647Z,12.32
2022-12-28T19:11:36.947Z,12.40
2022-12-28T19:14:05.046Z,12.32
2022-12-28T19:16:32.693Z,12.13
2022-12-28T19:19:00.405Z,12.15
2022-12-28T19:21:39.143Z,11.30
2022-12-28T19:24:12.391Z,11.27
2022-12-28T19:26:39.479Z,11.95
2022-12-28T19:29:07.029Z,11.73
2022-12-28T19:31:34.850Z,12.10
2022-12-28T19:34:02.244Z,11.07
2022-12-28T19:36:29.311Z,11.52
2022-12-28T19:38:57.303Z,13.18
2022-12-28T19:41:24.578Z,13.38
2022-12-28T19:43:51.643Z,14.55
2022-12-28T19:46:21.445Z,15.82
2022-12-28T19:48:48.831Z,15.90
2022-12-28T19:51:15.766Z,16.55
2022-12-28T19:53:42.656Z,15.05
2022-12-28T19:56:13.220Z,15.20
2022-12-28T19:58:40.672Z,14.00
2022-12-28T20:01:10.466Z,13.07
2022-12-28T20:03:37.832Z,14.10
2022-12-28T20:06:13.082Z,14.45
2022-12-28T20:08:40.814Z,12.88
2022-12-28T20:11:07.728Z,14.27
2022-12-28T20:13:35.042Z,14.45
2022-12-28T20:16:02.170Z,14.35
2022-12-28T20:18:29.174Z,13.77
2022-12-28T20:21:19.615Z,13.63
2022-12-28T20:23:48.283Z,13.85
2022-12-28T20:26:15.897Z,12.98
2022-12-28T20:28:42.903Z,13.20
2022-12-28T20:31:13.585Z,14.70
2022-12-28T20:33:41.220Z,13.68
2022-12-28T20:36:13.790Z,13.20
2022-12-28T20:38:40.786Z,14.07
2022-12-28T20:41:08.947Z,12.35
2022-12-28T20:43:36.572Z,13.30
2022-12-28T20:46:03.848Z,12.98
2022-12-28T20:48:30.751Z,12.85
2022-12-28T20:51:01.310Z,13.07
2022-12-28T20:53:28.601Z,14.32
2022-12-28T20:56:06.079Z,13.70
2022-12-28T20:58:33.187Z,12.43
2022-12-28T21:01:08.251Z,12.65
2022-12-28T21:03:36.091Z,12.35
2022-12-28T21:06:04.083Z,13.65
2022-12-28T21:08:31.628Z,11.85
2022-12-28T21:10:59.251Z,13.05
2022-12-28T21:13:26.838Z,12.75
2022-12-28T21:15:53.996Z,13.05
2022-12-28T21:18:21.004Z,11.73
2022-12-28T21:20:50.253Z,12.40
2022-12-28T21:23:17.811Z,12.30
2022-12-28T21:25:44.794Z,11.77
2022-12-28T21:28:11.796Z,12.00
2022-12-28T21:30:38.995Z,13.25
2022-12-28T21:33:05.961Z,11.88
2022-12-28T21:35:34.710Z,12.00
2022-12-28T21:38:02.061Z,12.75
2022-12-28T21:40:28.987Z,12.50
2022-12-28T21:42:55.837Z,11.43
2022-12-28T21:45:22.743Z,12.45
2022-12-28T21:47:49.651Z,11.43
2022-12-28T21:50:17.486Z,12.70
2022-12-28T21:52:44.607Z,12.68
2022-12-28T21:55:29.962Z,13.13
2022-12-28T21:57:59.513Z,14.15
2022-12-28T22:00:45.558Z,12.40
2022-12-28T22:03:31.159Z,11.38
2022-12-28T22:06:06.308Z,12.10
2022-12-28T22:09:05.998Z,12.80
2022-12-28T22:11:51.446Z,12.15
2022-12-28T22:14:18.480Z,12.73
2022-12-28T22:16:45.393Z,11.07
2022-12-28T22:19:12.305Z,11.13
2022-12-28T22:21:39.301Z,10.70
2022-12-28T22:24:06.386Z,10.38
2022-12-28T22:26:33.313Z,10.38
2022-12-28T22:29:00.230Z,10.73
2022-12-28T22:31:27.160Z,10.77
2022-12-28T22:33:55.510Z,11.63
2022-12-28T22:36:22.408Z,9.60
2022-12-28T22:38:49.333Z,9.80
2022-12-28T22:41:16.228Z,9.77
2022-12-28T22:43:43.216Z,9.48
2022-12-28T22:46:12.146Z,9.50
2022-12-28T22:48:39.534Z,9.73
2022-12-28T22:51:14.919Z,11.20
2022-12-28T22:53:42.374Z,9.80
2022-12-28T22:56:20.821Z,10.98
2022-12-28T22:58:48.948Z,9.48
2022-12-28T23:01:18.704Z,10.05
2022-12-28T23:03:47.589Z,9.40
2022-12-28T23:06:17.854Z,9.55
2022-12-28T23:08:45.589Z,10.45
2022-12-28T23:11:33.982Z,8.65
2022-12-28T23:14:21.791Z,9.75
2022-12-28T23:16:49.530Z,9.20
2022-12-28T23:19:35.197Z,8.70
2022-12-28T23:22:23.206Z,7.75
2022-12-28T23:25:08.824Z,8.00
2022-12-28T23:27:43.555Z,7.97
2022-12-28T23:30:14.322Z,8.00
2022-12-28T23:32:41.302Z,7.63
2022-12-28T23:35:08.603Z,7.38
2022-12-28T23:37:35.593Z,8.32
2022-12-28T23:40:02.715Z,7.95
2022-12-28T23:42:29.632Z,9.57
2022-12-28T23:44:56.517Z,7.13
2022-12-28T23:47:23.446Z,7.55
2022-12-28T23:49:50.462Z,7.20
2022-12-28T23:52:22.272Z,7.90
2022-12-28T23:54:52.598Z,7.35
2022-12-28T23:57:20.438Z,6.75
2022-12-28T23:59:47.791Z,6.80
